createdAt,value
2022-08-08T00:00:55.168Z,101857.69
2022-08-08T00:02:31.427Z,101834.19
2022-08-08T00:05:12.839Z,101701.69
2022-08-08T00:07:48.263Z,101864.19
2022-08-08T00:10:28.610Z,101844.03
2022-08-08T00:13:03.915Z,101853.25
2022-08-08T00:15:57.448Z,101848.00
2022-08-08T00:18:31.711Z,101847.16
2022-08-08T00:21:05.232Z,101845.25
2022-08-08T00:23:43.210Z,101845.25
2022-08-08T00:26:26.169Z,101843.63
2022-08-08T00:29:08.011Z,101840.47
2022-08-08T00:32:20.108Z,101852.63
2022-08-08T00:35:21.310Z,101843.63
2022-08-08T00:38:31.227Z,101838.56
2022-08-08T00:41:55.018Z,101840.03
2022-08-08T00:44:53.364Z,101850.97
2022-08-08T00:48:06.636Z,101849.28
2022-08-08T00:51:42.227Z,101843.81
2022-08-08T00:54:46.022Z,101842.97
2022-08-08T00:57:40.805Z,101828.28
2022-08-08T01:00:17.073Z,101836.66
2022-08-08T01:03:57.301Z,101837.50
2022-08-08T01:06:34.096Z,101832.06
2022-08-08T01:09:36.290Z,101847.59
2022-08-08T01:12:46.602Z,101848.66
2022-08-08T01:15:57.755Z,101848.66
2022-08-08T01:18:52.514Z,101848.66
2022-08-08T01:22:12.090Z,101852.44
2022-08-08T01:25:08.296Z,101853.53
2022-08-08T01:28:02.413Z,101855.19
2022-08-08T01:31:23.807Z,101846.97
2022-08-08T01:34:29.866Z,101842.59
2022-08-08T01:37:37.234Z,101844.47
2022-08-08T01:40:28.973Z,101843.63
2022-08-08T01:43:02.626Z,101846.13
2022-08-08T01:45:56.247Z,101690.38
2022-08-08T01:48:33.858Z,101842.59
2022-08-08T01:51:55.277Z,101837.94
2022-08-08T01:55:17.290Z,101823.47
2022-08-08T01:57:07.491Z,101840.66
2022-08-08T02:00:05.007Z,101808.38
2022-08-08T02:02:58.596Z,101806.91
2022-08-08T02:05:33.841Z,101842.59
2022-08-08T02:08:24.447Z,101843.41
2022-08-08T02:11:08.348Z,101841.75
2022-08-08T02:13:55.669Z,101843.63
2022-08-08T02:16:28.998Z,101846.38
2022-08-08T02:19:26.972Z,101847.22
2022-08-08T02:22:16.807Z,101847.22
2022-08-08T02:24:54.082Z,101851.41
2022-08-08T02:27:38.838Z,101851.00
2022-08-08T02:30:20.779Z,101848.28
2022-08-08T02:34:00.656Z,101853.75
2022-08-08T02:36:31.014Z,101848.28
2022-08-08T02:39:40.866Z,101817.63
2022-08-08T02:42:41.507Z,101851.00
2022-08-08T02:45:51.660Z,101844.91
2022-08-08T02:48:55.832Z,101836.31
2022-08-08T02:51:56.537Z,101839.44
2022-08-08T02:55:04.061Z,101843.00
2022-08-08T02:58:28.633Z,101839.44
2022-08-08T03:01:50.888Z,101838.19
2022-08-08T03:05:11.062Z,101843.22
2022-08-08T03:08:20.115Z,101842.41
2022-08-08T03:12:01.439Z,101845.16
2022-08-08T03:16:00.169Z,101809.28
2022-08-08T03:18:04.895Z,101845.94
2022-08-08T03:20:51.925Z,101837.75
2022-08-08T03:23:21.473Z,101840.47
2022-08-08T03:25:51.119Z,101842.16
2022-08-08T03:28:22.220Z,101841.13
2022-08-08T03:31:07.937Z,101837.16
2022-08-08T03:33:56.851Z,101853.94
2022-08-08T03:36:30.107Z,101855.84
2022-08-08T03:39:14.160Z,101853.09
2022-08-08T03:42:11.937Z,101857.53
2022-08-08T03:44:33.841Z,101853.94
2022-08-08T03:47:13.952Z,101863.00
2022-08-08T03:49:59.753Z,101858.38
2022-08-08T03:52:31.281Z,101862.16
2022-08-08T03:55:20.228Z,101871.00
2022-08-08T03:58:31.445Z,101883.81
2022-08-08T04:01:01.984Z,101874.78
2022-08-08T04:03:57.539Z,101874.78
2022-08-08T04:06:29.873Z,101882.97
2022-08-08T04:09:10.526Z,101883.81
2022-08-08T04:11:58.165Z,101892.03
2022-08-08T04:14:35.850Z,101879.00
2022-08-08T04:17:22.484Z,101895.81
2022-08-08T04:19:56.405Z,101887.41
2022-08-08T04:22:29.600Z,101890.13
2022-08-08T04:24:59.489Z,101892.03
2022-08-08T04:28:01.677Z,101889.28
2022-08-08T04:30:28.750Z,101891.19
2022-08-08T04:33:04.821Z,101894.75
2022-08-08T04:35:39.585Z,101895.59
2022-08-08T04:38:09.744Z,101900.22
2022-08-08T04:40:38.831Z,101897.31
2022-08-08T04:43:22.361Z,101901.28
2022-08-08T04:46:03.549Z,101898.56
2022-08-08T04:48:35.075Z,101901.28
2022-08-08T04:51:06.462Z,101902.13
2022-08-08T04:54:27.682Z,101907.59
2022-08-08T04:56:36.313Z,101909.50
2022-08-08T04:59:05.567Z,101907.59
2022-08-08T05:01:48.476Z,101902.34
2022-08-08T05:04:17.052Z,101920.44
2022-08-08T05:06:47.413Z,101917.69
2022-08-08T05:09:20.242Z,101916.63
2022-08-08T05:11:56.978Z,101920.22
2022-08-08T05:14:26.703Z,101916.84
2022-08-08T05:17:01.138Z,101909.50
2022-08-08T05:20:10.531Z,101915.81
2022-08-08T05:22:21.807Z,101918.53
2022-08-08T05:24:59.020Z,101919.38
2022-08-08T05:27:26.887Z,101922.13
2022-08-08T05:30:07.230Z,101915.81
2022-08-08T05:32:41.311Z,101918.53
2022-08-08T05:35:13.672Z,101912.22
2022-08-08T05:37:53.202Z,101915.81
2022-08-08T05:40:28.492Z,101914.97
2022-08-08T05:43:38.133Z,101917.69
2022-08-08T05:46:08.036Z,101918.75
2022-08-08T05:48:38.470Z,101924.22
2022-08-08T05:51:14.772Z,101920.44
2022-08-08T05:54:24.583Z,101922.31
2022-08-08T05:56:42.612Z,101922.31
2022-08-08T05:59:52.325Z,101927.78
2022-08-08T06:02:40.844Z,101925.06
2022-08-08T06:05:33.795Z,101925.91
2022-08-08T06:08:09.602Z,101927.78
2022-08-08T06:10:39.312Z,101928.00
2022-08-08T06:13:12.456Z,101931.38
2022-08-08T06:15:51.375Z,101925.72
2022-08-08T06:18:29.908Z,101938.53
2022-08-08T06:20:58.652Z,101937.69
2022-08-08T06:23:48.952Z,101939.38
2022-08-08T06:26:36.177Z,101942.94
2022-08-08T06:29:26.291Z,101944.84
2022-08-08T06:32:10.393Z,101938.13
2022-08-08T06:34:40.836Z,101948.41
2022-08-08T06:37:24.313Z,101952.00
2022-08-08T06:39:56.153Z,101954.72
2022-08-08T06:42:24.461Z,101953.03
2022-08-08T06:44:56.123Z,101948.41
2022-08-08T06:47:33.620Z,101947.56
2022-08-08T06:50:04.294Z,101945.69
2022-08-08T06:52:32.735Z,101949.47
2022-08-08T06:55:01.620Z,101949.47
2022-08-08T06:57:53.676Z,101955.78
2022-08-08T07:00:30.631Z,101946.94
2022-08-08T07:02:59.609Z,101956.81
2022-08-08T07:05:29.825Z,101957.66
2022-08-08T07:08:10.060Z,101963.13
2022-08-08T07:10:47.574Z,101962.94
2022-08-08T07:13:18.216Z,101971.13
2022-08-08T07:16:04.736Z,101973.88
2022-08-08T07:18:40.700Z,101978.25
2022-08-08T07:21:18.995Z,101980.16
2022-08-08T07:24:01.597Z,101988.34
2022-08-08T07:26:35.496Z,101979.09
2022-08-08T07:29:05.363Z,101987.31
2022-08-08T07:31:35.392Z,101977.84
2022-08-08T07:34:04.205Z,101982.88
2022-08-08T07:36:48.258Z,101989.19
2022-08-08T07:39:19.295Z,101985.63
2022-08-08T07:42:03.622Z,101983.72
2022-08-08T07:44:40.229Z,101987.75
2022-08-08T07:47:09.205Z,101983.72
2022-08-08T07:49:40.081Z,101991.72
2022-08-08T07:52:13.108Z,101995.31
2022-08-08T07:54:50.184Z,101990.88
2022-08-08T07:57:22.511Z,101990.03
2022-08-08T08:00:16.355Z,101996.34
2022-08-08T08:02:47.730Z,101980.59
2022-08-08T08:05:19.873Z,101992.78
2022-08-08T08:07:53.197Z,101994.66
2022-08-08T08:10:30.575Z,101993.63
2022-08-08T08:13:25.586Z,101990.03
2022-08-08T08:16:09.244Z,101988.16
2022-08-08T08:18:55.826Z,101982.50
2022-08-08T08:21:44.730Z,101995.50
2022-08-08T08:24:13.694Z,101989.00
2022-08-08T08:26:52.953Z,102003.72
2022-08-08T08:29:22.846Z,101995.13
2022-08-08T08:31:54.114Z,101993.81
2022-08-08T08:34:32.169Z,101993.81
2022-08-08T08:37:07.656Z,101890.50
2022-08-08T08:39:59.763Z,101994.66
2022-08-08T08:42:29.028Z,101996.34
2022-08-08T08:45:21.477Z,101999.28
2022-08-08T08:47:52.858Z,102002.88
2022-08-08T08:50:33.800Z,101996.56
2022-08-08T08:53:04.738Z,101993.81
2022-08-08T08:55:39.446Z,101989.19
2022-08-08T08:58:09.117Z,101990.47
2022-08-08T09:01:02.800Z,101990.28
2022-08-08T09:03:45.932Z,101991.31
2022-08-08T09:06:26.418Z,101985.44
2022-08-08T09:08:57.843Z,101978.72
2022-08-08T09:11:27.110Z,101983.97
2022-08-08T09:14:01.638Z,101989.44
2022-08-08T09:16:29.542Z,101989.44
2022-08-08T09:19:01.141Z,101993.00
2022-08-08T09:22:01.007Z,101992.19
2022-08-08T09:24:17.781Z,101991.94
2022-08-08T09:26:51.991Z,101985.63
2022-08-08T09:29:24.782Z,101988.34
2022-08-08T09:31:57.593Z,101985.84
2022-08-08T09:34:31.765Z,101988.34
2022-08-08T09:37:57.866Z,101989.44
2022-08-08T09:39:54.166Z,101982.06
2022-08-08T09:42:26.069Z,101985.63
2022-08-08T09:45:04.132Z,101979.53
2022-08-08T09:48:04.519Z,101985.63
2022-08-08T09:50:28.264Z,101989.19
2022-08-08T09:53:02.152Z,101983.13
2022-08-08T09:56:05.041Z,101978.50
2022-08-08T09:58:40.606Z,101975.75
2022-08-08T10:01:15.509Z,101972.19
2022-08-08T10:03:58.631Z,101980.38
2022-08-08T10:06:30.875Z,101973.03
2022-08-08T10:09:00.976Z,101981.22
2022-08-08T10:12:25.815Z,101976.81
2022-08-08T10:14:28.263Z,101974.91
2022-08-08T10:17:56.172Z,101968.22
2022-08-08T10:19:58.187Z,101985.22
2022-08-08T10:22:27.262Z,101980.38
2022-08-08T10:25:00.125Z,101974.91
2022-08-08T10:27:34.137Z,101976.81
2022-08-08T10:30:05.403Z,101975.97
2022-08-08T10:32:34.318Z,101979.53
2022-08-08T10:35:03.618Z,101974.06
2022-08-08T10:37:34.637Z,101978.50
2022-08-08T10:40:16.067Z,101966.72
2022-08-08T10:42:45.369Z,101967.56
2022-08-08T10:45:16.019Z,101969.44
2022-08-08T10:47:48.682Z,101969.44
2022-08-08T10:50:23.932Z,101968.41
2022-08-08T10:52:51.786Z,101964.81
2022-08-08T10:55:40.918Z,101965.66
2022-08-08T10:58:08.759Z,101970.28
2022-08-08T11:00:53.309Z,101970.28
2022-08-08T11:03:36.811Z,101971.13
2022-08-08T11:06:19.032Z,101969.22
2022-08-08T11:08:53.206Z,101972.78
2022-08-08T11:11:32.738Z,101962.09
2022-08-08T11:14:12.210Z,101965.66
2022-08-08T11:16:46.733Z,101976.38
2022-08-08T11:19:17.230Z,101957.88
2022-08-08T11:21:54.258Z,101962.09
2022-08-08T11:24:24.103Z,101947.13
2022-08-08T11:26:56.772Z,101955.53
2022-08-08T11:29:41.541Z,101959.13
2022-08-08T11:32:14.316Z,101959.13
2022-08-08T11:35:05.702Z,101955.78
2022-08-08T11:38:34.340Z,101961.00
2022-08-08T11:40:21.487Z,101957.22
2022-08-08T11:42:53.695Z,101946.53
2022-08-08T11:45:22.783Z,101952.59
2022-08-08T11:48:02.575Z,101964.38
2022-08-08T11:50:33.784Z,101949.84
2022-08-08T11:53:06.161Z,101952.59
2022-08-08T11:55:36.220Z,101949.84
2022-08-08T11:58:14.717Z,101949.84
2022-08-08T12:00:47.175Z,101952.59
2022-08-08T12:03:22.511Z,101952.59
2022-08-08T12:05:54.393Z,101947.13
2022-08-08T12:08:34.410Z,101941.66
2022-08-08T12:11:12.137Z,101938.91
2022-08-08T12:14:03.436Z,101941.66
2022-08-08T12:16:31.748Z,101932.59
2022-08-08T12:19:31.078Z,101943.53
2022-08-08T12:22:20.912Z,101937.03
2022-08-08T12:24:53.935Z,101942.50
2022-08-08T12:27:43.197Z,101933.44
2022-08-08T12:30:21.834Z,101933.25
2022-08-08T12:32:54.541Z,101934.09
2022-08-08T12:35:27.033Z,101937.03
2022-08-08T12:38:17.715Z,101937.88
2022-08-08T12:40:55.894Z,101930.91
2022-08-08T12:43:51.294Z,101928.81
2022-08-08T12:46:25.264Z,101932.41
2022-08-08T12:49:22.220Z,101930.50
2022-08-08T12:51:50.111Z,101930.50
2022-08-08T12:54:27.109Z,101923.16
2022-08-08T12:56:56.953Z,101926.09
2022-08-08T12:59:36.229Z,101925.88
2022-08-08T13:02:23.388Z,101919.56
2022-08-08T13:04:57.313Z,101924.00
2022-08-08T13:08:02.887Z,101922.31
2022-08-08T13:10:31.898Z,101921.25
2022-08-08T13:13:06.183Z,101916.84
2022-08-08T13:15:36.530Z,101921.25
2022-08-08T13:18:11.494Z,101909.47
2022-08-08T13:20:45.107Z,101914.09
2022-08-08T13:23:41.347Z,101907.78
2022-08-08T13:26:15.581Z,101902.31
2022-08-08T13:28:45.857Z,101901.91
2022-08-08T13:31:17.293Z,101908.63
2022-08-08T13:33:47.293Z,101909.69
2022-08-08T13:36:26.204Z,101911.34
2022-08-08T13:39:00.473Z,101895.59
2022-08-08T13:41:37.797Z,101903.16
2022-08-08T13:44:11.412Z,101894.94
2022-08-08T13:46:40.006Z,101895.78
2022-08-08T13:50:35.235Z,101901.25
2022-08-08T13:52:05.822Z,101902.09
2022-08-08T13:54:35.986Z,101900.22
2022-08-08T13:57:12.362Z,101894.75
2022-08-08T13:59:44.378Z,101892.84
2022-08-08T14:02:20.327Z,101888.19
2022-08-08T14:04:57.166Z,101890.13
2022-08-08T14:07:29.712Z,101883.16
2022-08-08T14:10:04.265Z,101903.78
2022-08-08T14:12:43.862Z,101882.72
2022-08-08T14:15:24.537Z,101884.63
2022-08-08T14:18:36.815Z,101890.91
2022-08-08T14:20:57.621Z,101888.19
2022-08-08T14:24:07.414Z,101884.63
2022-08-08T14:26:29.986Z,101887.13
2022-08-08T14:29:01.513Z,101888.19
2022-08-08T14:32:05.694Z,101885.44
2022-08-08T14:34:27.710Z,101889.03
2022-08-08T14:36:57.987Z,101882.72
2022-08-08T14:39:48.234Z,101884.63
2022-08-08T14:42:16.990Z,101885.44
2022-08-08T14:44:55.470Z,101884.00
2022-08-08T14:47:23.359Z,101880.22
2022-08-08T14:50:05.909Z,101879.16
2022-08-08T14:52:48.578Z,101888.19
2022-08-08T14:55:22.474Z,101876.66
2022-08-08T14:58:16.299Z,101884.63
2022-08-08T15:00:47.800Z,101879.16
2022-08-08T15:03:17.418Z,101884.63
2022-08-08T15:05:54.712Z,101876.19
2022-08-08T15:08:34.807Z,101880.22
2022-08-08T15:11:07.167Z,101881.91
2022-08-08T15:13:40.848Z,101877.25
2022-08-08T15:16:28.057Z,101876.44
2022-08-08T15:18:58.330Z,101879.97
2022-08-08T15:21:30.220Z,101877.25
2022-08-08T15:23:58.467Z,101875.34
2022-08-08T15:26:29.218Z,101871.19
2022-08-08T15:28:58.893Z,101870.72
2022-08-08T15:32:03.564Z,101868.22
2022-08-08T15:34:28.917Z,101871.78
2022-08-08T15:36:58.414Z,101870.97
2022-08-08T15:39:29.011Z,101872.63
2022-08-08T15:41:59.263Z,101868.22
2022-08-08T15:44:29.835Z,101857.06
2022-08-08T15:46:59.807Z,101871.78
2022-08-08T15:49:29.504Z,101865.25
2022-08-08T15:51:57.378Z,101869.88
2022-08-08T15:54:38.346Z,101875.34
2022-08-08T15:57:08.823Z,101871.78
2022-08-08T16:00:05.722Z,101873.69
2022-08-08T16:02:37.153Z,101868.00
2022-08-08T16:05:13.978Z,101862.75
2022-08-08T16:07:51.559Z,101864.19
2022-08-08T16:13:15.435Z,101863.56
2022-08-08T16:13:31.924Z,101858.94
2022-08-08T16:16:09.564Z,101846.56
2022-08-08T16:18:56.205Z,101856.22
2022-08-08T16:21:27.102Z,101859.78
2022-08-08T16:23:56.442Z,101850.75
2022-08-08T16:26:34.391Z,101855.38
2022-08-08T16:29:08.163Z,101854.31
2022-08-08T16:31:40.730Z,101860.84
2022-08-08T16:34:10.001Z,101849.09
2022-08-08T16:36:38.462Z,101856.22
2022-08-08T16:39:09.709Z,101853.47
2022-08-08T16:41:50.235Z,101856.22
2022-08-08T16:44:28.016Z,101855.38
2022-08-08T16:47:18.510Z,101850.75
2022-08-08T16:49:49.907Z,101853.47
2022-08-08T16:55:05.496Z,101853.25
2022-08-08T16:55:34.265Z,101856.00
2022-08-08T16:58:16.349Z,101853.25
2022-08-08T17:00:42.664Z,101848.63
2022-08-08T17:03:25.334Z,101852.22
2022-08-08T17:06:06.936Z,101859.56
2022-08-08T17:08:54.672Z,101856.84
2022-08-08T17:11:22.592Z,101863.16
2022-08-08T17:14:01.586Z,101859.56
2022-08-08T17:16:29.905Z,101856.84
2022-08-08T17:19:00.611Z,101855.16
2022-08-08T17:21:37.644Z,101858.53
2022-08-08T17:24:21.981Z,101857.69
2022-08-08T17:26:57.722Z,101873.03
2022-08-08T17:29:25.969Z,101878.50
2022-08-08T17:31:53.798Z,101874.09
2022-08-08T17:34:54.462Z,101876.81
2022-08-08T17:37:11.335Z,101882.28
2022-08-08T17:40:04.614Z,101884.19
2022-08-08T17:42:28.555Z,101887.78
2022-08-08T17:44:58.495Z,101887.78
2022-08-08T17:47:28.150Z,101890.50
2022-08-08T17:50:07.972Z,101891.56
2022-08-08T17:52:38.178Z,101888.81
2022-08-08T17:56:06.065Z,101886.09
2022-08-08T17:57:55.225Z,101886.94
2022-08-08T18:00:30.183Z,101892.41
2022-08-08T18:03:08.670Z,101893.25
2022-08-08T18:05:48.265Z,101899.38
2022-08-08T18:08:37.942Z,101903.53
2022-08-08T18:11:06.936Z,101897.88
2022-08-08T18:13:41.493Z,101906.06
2022-08-08T18:16:10.010Z,101906.06
2022-08-08T18:18:42.583Z,101912.38
2022-08-08T18:21:35.371Z,101909.47
2022-08-08T18:24:00.280Z,101909.66
2022-08-08T18:26:29.018Z,101904.19
2022-08-08T18:28:57.722Z,101910.69
2022-08-08T18:31:27.850Z,101914.28
2022-08-08T18:34:18.789Z,101909.84
2022-08-08T18:36:46.241Z,101914.50
2022-08-08T18:39:27.730Z,101911.53
2022-08-08T18:42:03.389Z,101912.59
2022-08-08T18:44:33.092Z,101914.50
2022-08-08T18:47:02.663Z,101915.34
2022-08-08T18:49:41.129Z,101925.44
2022-08-08T18:52:22.289Z,101927.97
2022-08-08T18:55:00.686Z,101935.31
2022-08-08T18:57:40.988Z,101942.69
2022-08-08T19:00:16.732Z,101935.53
2022-08-08T19:02:55.291Z,101945.41
2022-08-08T19:05:32.240Z,101954.69
2022-08-08T19:08:25.114Z,101955.97
2022-08-08T19:10:56.595Z,101968.34
2022-08-08T19:13:25.412Z,101969.44
2022-08-08T19:16:15.843Z,101971.31
2022-08-08T19:18:53.197Z,101974.06
2022-08-08T19:21:30.342Z,101981.19
2022-08-08T19:24:05.623Z,101981.81
2022-08-08T19:26:34.651Z,101983.91
2022-08-08T19:29:02.533Z,101991.06
2022-08-08T19:31:35.294Z,101993.81
2022-08-08T19:34:36.253Z,101997.59
2022-08-08T19:36:55.451Z,101995.72
2022-08-08T19:39:30.696Z,102000.34
2022-08-08T19:42:04.183Z,102001.19
2022-08-08T19:44:45.520Z,102001.41
2022-08-08T19:47:14.497Z,102004.16
2022-08-08T19:49:43.375Z,102009.38
2022-08-08T19:52:11.879Z,102008.53
2022-08-08T19:54:43.317Z,102017.81
2022-08-08T19:57:14.240Z,102024.13
2022-08-08T19:59:43.999Z,102020.56
2022-08-08T20:02:12.269Z,102021.41
2022-08-08T20:04:40.862Z,102021.41
2022-08-08T20:08:28.023Z,102024.94
2022-08-08T20:10:00.489Z,102032.34
2022-08-08T20:12:32.088Z,102031.50
2022-08-08T20:15:14.985Z,102029.59
2022-08-08T20:17:45.690Z,102030.66
2022-08-08T20:20:19.255Z,102023.28
2022-08-08T20:22:52.742Z,102024.56
2022-08-08T20:25:29.618Z,102032.34
2022-08-08T20:28:01.010Z,102030.41
2022-08-08T20:30:38.952Z,102025.19
2022-08-08T20:35:58.787Z,102031.50
2022-08-08T20:38:32.922Z,102032.56
2022-08-08T20:41:05.793Z,102027.09
2022-08-08T20:43:49.260Z,102027.09
2022-08-08T20:46:17.484Z,102033.41
2022-08-08T20:48:48.389Z,102028.97
2022-08-08T20:51:16.282Z,102032.56
2022-08-08T20:53:58.247Z,102043.50
2022-08-08T20:56:35.217Z,102039.91
2022-08-08T20:59:05.922Z,102039.91
2022-08-08T21:02:05.348Z,102033.59
2022-08-08T21:04:23.332Z,102038.22
2022-08-08T21:06:51.906Z,102032.75
2022-08-08T21:09:21.494Z,102048.13
2022-08-08T21:12:02.694Z,102045.38
2022-08-08T21:14:34.754Z,102048.97
2022-08-08T21:17:06.177Z,102041.81
2022-08-08T21:19:45.145Z,102055.47
2022-08-08T21:22:14.176Z,102045.78
2022-08-08T21:24:52.740Z,102048.13
2022-08-08T21:28:06.161Z,102044.53
2022-08-08T21:30:18.851Z,102035.28
2022-08-08T21:32:52.535Z,102047.28
2022-08-08T21:36:14.923Z,102044.53
2022-08-08T21:38:16.783Z,102043.69
2022-08-08T21:40:55.435Z,102047.28
2022-08-08T21:43:34.361Z,102042.84
2022-08-08T21:48:16.298Z,102045.59
2022-08-08T21:48:59.136Z,102047.28
2022-08-08T21:54:18.137Z,102041.16
2022-08-08T21:54:34.276Z,102049.16
2022-08-08T21:57:15.210Z,102042.84
2022-08-08T22:00:03.968Z,102051.06
2022-08-08T22:02:35.989Z,102041.16
2022-08-08T22:05:05.258Z,102051.25
2022-08-08T22:07:41.475Z,102052.94
2022-08-08T22:10:18.370Z,102048.53
2022-08-08T22:13:17.628Z,102062.19
2022-08-08T22:15:58.355Z,102058.41
2022-08-08T22:18:31.132Z,102059.47
2022-08-08T22:21:14.571Z,102067.66
2022-08-08T22:23:50.745Z,102071.25
2022-08-08T22:26:28.733Z,102062.44
2022-08-08T22:29:15.140Z,102064.13
2022-08-08T22:32:02.385Z,102069.59
2022-08-08T22:34:32.994Z,102078.63
2022-08-08T22:37:27.903Z,102073.59
2022-08-08T22:40:01.182Z,102082.19
2022-08-08T22:42:41.030Z,102080.53
2022-08-08T22:45:21.978Z,102075.06
2022-08-08T22:47:52.548Z,102075.06
2022-08-08T22:50:26.740Z,102078.63
2022-08-08T22:54:27.980Z,102079.47
2022-08-08T22:55:59.191Z,102076.97
2022-08-08T22:58:38.092Z,102072.34
2022-08-08T23:02:00.516Z,102071.25
2022-08-08T23:04:00.512Z,102072.34
2022-08-08T23:06:28.377Z,102062.44
2022-08-08T23:08:58.706Z,102063.28
2022-08-08T23:11:30.843Z,102063.28
2022-08-08T23:14:15.637Z,102062.00
2022-08-08T23:16:57.460Z,102065.19
2022-08-08T23:19:31.001Z,102066.03
2022-08-08T23:22:01.576Z,102069.59
2022-08-08T23:24:36.208Z,102067.91
2022-08-08T23:27:06.129Z,102065.19
2022-08-08T23:29:33.955Z,102066.22
2022-08-08T23:32:04.424Z,102060.75
2022-08-08T23:34:49.571Z,102058.03
2022-08-08T23:37:54.214Z,102064.34
2022-08-08T23:40:22.725Z,102062.44
2022-08-08T23:42:51.320Z,102058.84
2022-08-08T23:49:02.241Z,102058.84
2022-08-08T23:49:06.341Z,102062.44
2022-08-08T23:51:03.577Z,102062.84
2022-08-08T23:54:05.470Z,102067.06
2022-08-08T23:56:32.012Z,102075.28
2022-08-08T23:59:00.075Z,102067.06
